createdAt,value
2023-01-30T00:00:20.865Z,5.97
2023-01-30T00:01:49.924Z,5.99
2023-01-30T00:07:06.537Z,6.05
2023-01-30T00:08:36.494Z,6.08
2023-01-30T00:13:06.247Z,5.99
2023-01-30T00:14:34.257Z,6.17
2023-01-30T00:18:25.627Z,6.28
2023-01-30T00:19:57.562Z,6.31
2023-01-30T00:21:59.704Z,6.16
2023-01-30T00:24:00.504Z,6.24
2023-01-30T00:25:32.933Z,6.27
2023-01-30T00:30:11.987Z,6.33
2023-01-30T00:33:59.612Z,6.35
2023-01-30T00:37:57.932Z,6.42
2023-01-30T00:39:27.054Z,6.44
2023-01-30T00:42:24.899Z,6.36
2023-01-30T00:48:13.848Z,6.39
2023-01-30T00:50:42.769Z,6.44
2023-01-30T00:52:44.529Z,6.38
2023-01-30T00:55:32.175Z,6.48
2023-01-30T00:57:02.040Z,6.57
2023-01-30T00:58:59.928Z,6.59
2023-01-30T01:00:34.896Z,6.52
2023-01-30T01:03:25.938Z,6.41
2023-01-30T01:04:04.607Z,6.49
2023-01-30T01:05:05.554Z,6.52
2023-01-30T01:07:02.469Z,6.60
2023-01-30T01:08:51.528Z,6.63
2023-01-30T01:11:45.243Z,6.49
2023-01-30T01:14:36.715Z,6.59
2023-01-30T01:16:34.529Z,6.57
2023-01-30T01:22:29.688Z,6.62
2023-01-30T01:24:30.932Z,6.72
2023-01-30T01:25:57.984Z,6.72
2023-01-30T01:31:05.701Z,6.59
2023-01-30T01:33:57.659Z,6.59
2023-01-30T01:36:58.166Z,6.69
2023-01-30T01:42:35.854Z,6.81
2023-01-30T01:45:05.175Z,6.85
2023-01-30T01:48:06.349Z,6.78
2023-01-30T01:50:52.993Z,6.84
2023-01-30T01:53:42.732Z,6.85
2023-01-30T01:55:12.574Z,6.85
2023-01-30T01:57:43.056Z,6.82
2023-01-30T01:59:13.252Z,6.74
2023-01-30T02:01:44.376Z,6.89
2023-01-30T02:03:44.599Z,6.96
2023-01-30T02:07:42.657Z,7.05
2023-01-30T02:10:15.356Z,7.14
2023-01-30T02:11:43.315Z,7.17
2023-01-30T02:14:31.493Z,7.14
2023-01-30T02:16:19.846Z,7.11
2023-01-30T02:18:21.658Z,7.10
2023-01-30T02:20:22.390Z,7.15
2023-01-30T02:22:41.474Z,7.18
2023-01-30T02:24:10.365Z,7.31
2023-01-30T02:30:30.653Z,7.39
2023-01-30T02:33:59.187Z,7.45
2023-01-30T02:39:15.917Z,7.47
2023-01-30T02:41:46.998Z,7.51
2023-01-30T02:45:02.211Z,7.58
2023-01-30T02:48:07.463Z,7.43
2023-01-30T02:49:43.899Z,7.54
2023-01-30T02:55:53.774Z,7.60
2023-01-30T02:58:44.262Z,7.69
2023-01-30T03:00:14.093Z,7.67
2023-01-30T03:01:45.119Z,7.72
2023-01-30T03:03:43.872Z,7.53
2023-01-30T03:06:55.455Z,7.73
2023-01-30T03:09:23.362Z,7.66
2023-01-30T03:13:40.926Z,7.67
2023-01-30T03:15:14.184Z,7.60
2023-01-30T03:16:45.182Z,7.70
2023-01-30T03:20:44.292Z,7.72
2023-01-30T03:23:03.038Z,7.58
2023-01-30T03:28:54.460Z,7.70
2023-01-30T03:33:32.418Z,7.51
2023-01-30T03:35:21.129Z,7.73
2023-01-30T03:39:13.573Z,7.77
2023-01-30T03:40:42.472Z,7.77
2023-01-30T03:45:27.351Z,7.75
2023-01-30T03:47:25.499Z,7.60
2023-01-30T03:49:12.698Z,7.58
2023-01-30T03:50:44.867Z,7.58
2023-01-30T03:54:02.601Z,7.75
2023-01-30T04:02:01.594Z,7.85
2023-01-30T04:06:28.311Z,7.80
2023-01-30T04:11:59.962Z,7.85
2023-01-30T04:15:02.586Z,7.82
2023-01-30T04:17:55.189Z,7.91
2023-01-30T04:21:22.250Z,7.80
2023-01-30T04:23:40.944Z,7.72
2023-01-30T04:25:10.066Z,7.80
2023-01-30T04:43:57.919Z,8.00
2023-01-30T04:47:12.110Z,8.12
2023-01-30T04:50:33.565Z,8.06
2023-01-30T04:51:34.373Z,8.05
2023-01-30T04:52:33.560Z,8.10
2023-01-30T04:53:33.522Z,8.16
2023-01-30T04:55:33.152Z,8.10
2023-01-30T04:57:02.080Z,8.16
2023-01-30T04:58:32.389Z,8.16
2023-01-30T05:00:02.116Z,8.16
2023-01-30T05:02:58.371Z,8.20
2023-01-30T05:04:28.287Z,8.20
2023-01-30T05:07:48.993Z,8.37
2023-01-30T05:09:47.832Z,8.31
2023-01-30T05:11:16.922Z,8.31
2023-01-30T05:13:16.733Z,8.38
2023-01-30T05:15:43.985Z,8.36
2023-01-30T05:28:02.032Z,8.53
2023-01-30T05:30:00.036Z,8.42
2023-01-30T05:33:55.174Z,8.44
2023-01-30T05:36:21.845Z,8.27
2023-01-30T05:38:19.716Z,8.23
2023-01-30T05:41:46.361Z,7.94
2023-01-30T05:43:15.245Z,7.83
2023-01-30T05:45:13.326Z,7.80
2023-01-30T05:49:29.938Z,7.75
2023-01-30T05:51:58.772Z,7.75
2023-01-30T05:53:57.706Z,7.75
2023-01-30T05:55:26.661Z,7.58
2023-01-30T05:56:56.550Z,7.54
2023-01-30T05:58:56.411Z,7.61
2023-01-30T06:00:27.236Z,7.67
2023-01-30T06:02:15.013Z,7.70
2023-01-30T06:04:42.770Z,7.61
2023-01-30T06:08:08.392Z,7.69
2023-01-30T06:10:41.268Z,7.70
2023-01-30T06:12:10.229Z,7.79
2023-01-30T06:16:56.791Z,7.72
2023-01-30T06:20:13.753Z,7.70
2023-01-30T06:21:43.625Z,7.77
2023-01-30T06:23:41.424Z,7.87
2023-01-30T06:25:40.247Z,7.87
2023-01-30T06:28:09.279Z,7.82
2023-01-30T06:31:37.207Z,7.85
2023-01-30T06:37:53.436Z,7.90
2023-01-30T06:40:16.014Z,7.76
2023-01-30T06:45:40.219Z,7.73
2023-01-30T06:48:08.774Z,7.83
2023-01-30T06:50:09.599Z,7.73
2023-01-30T06:51:36.612Z,7.70
2023-01-30T06:56:22.977Z,7.76
2023-01-30T07:00:22.949Z,7.87
2023-01-30T07:02:48.189Z,7.98
2023-01-30T07:06:25.741Z,7.80
2023-01-30T07:11:16.120Z,7.79
2023-01-30T07:14:46.918Z,7.91
2023-01-30T07:20:12.262Z,7.58
2023-01-30T07:23:26.707Z,7.63
2023-01-30T07:26:44.861Z,7.66
2023-01-30T07:31:10.589Z,7.58
2023-01-30T07:33:38.471Z,7.66
2023-01-30T07:37:29.468Z,7.60
2023-01-30T07:40:30.976Z,7.47
2023-01-30T07:42:09.158Z,7.39
2023-01-30T07:46:00.834Z,7.43
2023-01-30T07:53:23.743Z,7.47
2023-01-30T07:57:37.975Z,7.32
2023-01-30T07:59:56.609Z,7.36
2023-01-30T08:01:54.756Z,7.40
2023-01-30T08:03:41.085Z,7.42
2023-01-30T08:09:05.231Z,7.33
2023-01-30T08:16:18.401Z,7.36
2023-01-30T08:18:08.808Z,7.35
2023-01-30T08:23:38.787Z,7.60
2023-01-30T08:27:07.776Z,7.73
2023-01-30T08:32:24.689Z,7.76
2023-01-30T08:34:02.547Z,7.85
2023-01-30T08:35:31.524Z,7.82
2023-01-30T08:40:37.246Z,7.98
2023-01-30T08:44:52.791Z,7.97
2023-01-30T08:47:13.735Z,7.90
2023-01-30T08:51:20.957Z,8.05
2023-01-30T08:54:30.556Z,8.06
2023-01-30T08:56:29.466Z,8.00
2023-01-30T08:58:32.288Z,8.09
2023-01-30T09:01:02.463Z,8.00
2023-01-30T09:04:27.067Z,8.01
2023-01-30T09:06:30.921Z,8.09
2023-01-30T09:09:09.420Z,8.12
2023-01-30T09:11:08.056Z,8.24
2023-01-30T09:13:35.250Z,8.03
2023-01-30T09:15:34.386Z,8.16
2023-01-30T09:19:09.084Z,8.16
2023-01-30T09:22:05.164Z,8.10
2023-01-30T09:26:51.573Z,8.20
2023-01-30T09:38:30.695Z,8.20
2023-01-30T09:42:50.884Z,8.10
2023-01-30T09:47:12.247Z,8.16
2023-01-30T09:49:01.495Z,8.15
2023-01-30T09:54:35.234Z,8.24
2023-01-30T09:58:24.855Z,8.15
2023-01-30T10:00:46.540Z,8.28
2023-01-30T10:02:45.077Z,8.09
2023-01-30T10:08:35.367Z,8.28
2023-01-30T10:12:01.092Z,8.28
2023-01-30T10:15:58.071Z,8.31
2023-01-30T10:19:35.571Z,8.19
2023-01-30T10:21:18.985Z,8.20
2023-01-30T10:23:17.311Z,8.42
2023-01-30T10:27:07.730Z,8.45
2023-01-30T10:29:08.584Z,8.31
2023-01-30T10:31:31.057Z,8.58
2023-01-30T10:34:19.992Z,8.61
2023-01-30T10:35:49.889Z,8.58
2023-01-30T10:38:40.671Z,8.66
2023-01-30T10:40:40.830Z,8.61
2023-01-30T10:42:44.015Z,8.67
2023-01-30T10:46:05.593Z,8.79
2023-01-30T10:52:24.844Z,9.18
2023-01-30T10:54:57.581Z,8.87
2023-01-30T10:58:36.588Z,9.00
2023-01-30T11:03:26.269Z,11.12
2023-01-30T11:05:33.198Z,10.56
2023-01-30T11:08:02.242Z,11.00
2023-01-30T11:09:31.129Z,12.04
2023-01-30T11:11:21.396Z,12.93
2023-01-30T11:13:58.341Z,11.62
2023-01-30T11:19:49.442Z,10.54
2023-01-30T11:23:26.257Z,10.15
2023-01-30T11:26:51.649Z,9.94
2023-01-30T11:33:23.162Z,9.37
2023-01-30T11:34:50.996Z,9.40
2023-01-30T11:39:52.797Z,9.31
2023-01-30T11:42:09.049Z,9.29
2023-01-30T11:44:27.924Z,9.44
2023-01-30T11:47:34.830Z,9.86
2023-01-30T11:49:58.688Z,10.01
2023-01-30T11:50:43.895Z,9.68
2023-01-30T11:52:13.972Z,9.55
2023-01-30T11:54:03.355Z,9.51
2023-01-30T11:58:37.146Z,9.21
2023-01-30T12:01:36.109Z,9.34
2023-01-30T12:15:56.246Z,9.25
2023-01-30T12:22:41.438Z,9.21
2023-01-30T12:25:14.245Z,9.22
2023-01-30T12:26:46.651Z,9.16
2023-01-30T12:28:16.773Z,9.25
2023-01-30T12:29:48.593Z,9.28
2023-01-30T12:34:31.972Z,9.29
2023-01-30T12:36:29.359Z,9.36
2023-01-30T12:46:40.635Z,9.73
2023-01-30T12:50:03.052Z,9.86
2023-01-30T12:53:01.465Z,10.12
2023-01-30T12:55:01.408Z,10.15
2023-01-30T12:59:26.232Z,10.01
2023-01-30T13:00:58.112Z,10.04
2023-01-30T13:10:32.886Z,9.99
2023-01-30T13:12:34.867Z,9.74
2023-01-30T13:14:01.791Z,9.77
2023-01-30T13:16:51.921Z,9.76
2023-01-30T13:20:44.989Z,9.14
2023-01-30T13:25:43.781Z,8.89
2023-01-30T13:28:45.727Z,8.31
2023-01-30T13:31:03.701Z,8.23
2023-01-30T13:33:32.658Z,7.80
2023-01-30T13:38:01.248Z,7.79
2023-01-30T13:43:19.637Z,8.13
2023-01-30T13:44:19.665Z,8.08
2023-01-30T13:45:21.378Z,8.01
2023-01-30T13:53:01.131Z,8.26
2023-01-30T14:00:08.868Z,8.44
2023-01-30T14:04:22.751Z,8.61
2023-01-30T14:05:50.292Z,8.70
2023-01-30T14:09:01.818Z,8.58
2023-01-30T14:14:07.653Z,8.92
2023-01-30T14:17:23.623Z,8.74
2023-01-30T14:19:40.938Z,8.85
2023-01-30T14:21:32.910Z,8.99
2023-01-30T14:23:07.004Z,9.00
2023-01-30T14:29:26.887Z,8.89
2023-01-30T14:32:26.549Z,8.92
2023-01-30T14:33:58.343Z,8.92
2023-01-30T14:37:20.873Z,8.89
2023-01-30T14:39:48.908Z,8.95
2023-01-30T14:42:23.204Z,9.08
2023-01-30T14:47:01.294Z,8.95
2023-01-30T14:48:30.560Z,9.04
2023-01-30T14:51:50.660Z,9.14
2023-01-30T14:53:40.395Z,9.02
2023-01-30T14:54:42.522Z,9.13
2023-01-30T14:56:01.364Z,9.00
2023-01-30T14:58:30.947Z,8.99
2023-01-30T15:01:00.918Z,8.91
2023-01-30T15:03:28.837Z,8.94
2023-01-30T15:04:57.774Z,8.91
2023-01-30T15:07:29.568Z,9.03
2023-01-30T15:12:44.791Z,8.92
2023-01-30T15:16:07.215Z,8.95
2023-01-30T15:19:36.710Z,8.94
2023-01-30T15:21:08.545Z,8.99
2023-01-30T15:29:21.226Z,9.06
2023-01-30T15:31:57.394Z,8.92
2023-01-30T15:35:38.420Z,8.92
2023-01-30T15:38:47.061Z,8.76
2023-01-30T15:40:21.986Z,8.87
2023-01-30T15:42:59.543Z,8.78
2023-01-30T15:48:36.168Z,8.70
2023-01-30T15:50:06.073Z,8.73
2023-01-30T15:52:59.732Z,8.73
2023-01-30T15:54:31.582Z,8.63
2023-01-30T15:56:00.300Z,8.67
2023-01-30T15:57:31.529Z,8.69
2023-01-30T16:00:43.084Z,8.69
2023-01-30T16:03:38.596Z,8.64
2023-01-30T16:07:02.874Z,8.49
2023-01-30T16:08:30.431Z,8.58
2023-01-30T16:10:32.533Z,8.48
2023-01-30T16:13:23.195Z,8.61
2023-01-30T16:16:55.070Z,8.56
2023-01-30T16:20:18.698Z,8.61
2023-01-30T16:23:00.790Z,8.63
2023-01-30T16:27:06.493Z,8.51
2023-01-30T16:28:37.473Z,8.56
2023-01-30T16:30:07.821Z,8.61
2023-01-30T16:32:53.429Z,8.55
2023-01-30T16:34:24.719Z,8.51
2023-01-30T16:35:54.217Z,8.44
2023-01-30T16:37:23.260Z,8.36
2023-01-30T16:42:55.271Z,8.41
2023-01-30T16:45:54.261Z,8.64
2023-01-30T16:47:48.950Z,8.52
2023-01-30T16:53:43.402Z,8.38
2023-01-30T16:55:59.864Z,8.37
2023-01-30T16:57:52.744Z,8.44
2023-01-30T16:59:46.922Z,8.48
2023-01-30T17:01:14.903Z,8.48
2023-01-30T17:03:37.507Z,8.28
2023-01-30T17:05:05.419Z,8.36
2023-01-30T17:06:38.613Z,8.31
2023-01-30T17:11:08.039Z,8.19
2023-01-30T17:16:26.763Z,8.26
2023-01-30T17:19:34.591Z,8.23
2023-01-30T17:22:13.542Z,8.15
2023-01-30T17:24:37.990Z,8.16
2023-01-30T17:32:11.143Z,8.15
2023-01-30T17:34:09.877Z,7.95
2023-01-30T17:35:39.016Z,7.83
2023-01-30T17:37:29.394Z,7.91
2023-01-30T17:39:22.268Z,7.91
2023-01-30T17:40:41.179Z,7.98
2023-01-30T17:41:19.627Z,8.00
2023-01-30T17:42:20.571Z,7.91
2023-01-30T17:44:40.728Z,7.80
2023-01-30T17:48:24.949Z,7.77
2023-01-30T17:53:02.331Z,7.67
2023-01-30T17:54:53.200Z,7.70
2023-01-30T17:56:53.151Z,7.60
2023-01-30T18:00:34.810Z,7.57
2023-01-30T18:08:11.444Z,7.70
2023-01-30T18:15:23.225Z,7.61
2023-01-30T18:17:10.503Z,7.56
2023-01-30T18:23:50.529Z,7.38
2023-01-30T18:28:11.580Z,7.42
2023-01-30T18:30:35.771Z,7.42
2023-01-30T18:32:03.291Z,7.40
2023-01-30T18:33:34.179Z,7.33
2023-01-30T18:37:33.144Z,7.31
2023-01-30T18:40:02.390Z,7.31
2023-01-30T18:42:04.796Z,7.35
2023-01-30T18:43:37.163Z,7.31
2023-01-30T18:45:07.089Z,7.28
2023-01-30T18:47:26.693Z,7.18
2023-01-30T18:49:27.720Z,7.13
2023-01-30T18:51:48.311Z,7.20
2023-01-30T18:54:07.116Z,7.21
2023-01-30T18:55:36.117Z,7.10
2023-01-30T18:57:22.919Z,7.11
2023-01-30T19:01:37.859Z,7.03
2023-01-30T19:03:39.221Z,6.97
2023-01-30T19:06:28.102Z,7.02
2023-01-30T19:07:56.433Z,6.99
2023-01-30T19:09:27.818Z,7.03
2023-01-30T19:12:04.887Z,6.99
2023-01-30T19:13:40.491Z,7.00
2023-01-30T19:15:13.584Z,7.00
2023-01-30T19:16:30.739Z,6.93
2023-01-30T19:17:10.394Z,6.87
2023-01-30T19:19:50.635Z,6.87
2023-01-30T19:21:20.765Z,6.85
2023-01-30T19:25:06.527Z,6.96
2023-01-30T19:27:57.971Z,6.99
2023-01-30T19:30:21.835Z,7.00
2023-01-30T19:33:00.969Z,6.92
2023-01-30T19:38:36.869Z,6.77
2023-01-30T19:42:59.648Z,6.74
2023-01-30T19:44:27.278Z,6.78
2023-01-30T19:46:31.406Z,6.77
2023-01-30T19:49:12.165Z,6.77
2023-01-30T19:50:43.037Z,6.78
2023-01-30T19:52:34.704Z,6.81
2023-01-30T19:54:03.993Z,6.81
2023-01-30T19:55:53.851Z,6.82
2023-01-30T19:58:31.337Z,6.75
2023-01-30T20:01:13.768Z,6.77
2023-01-30T20:05:28.875Z,6.88
2023-01-30T20:07:28.244Z,6.97
2023-01-30T20:08:55.983Z,6.96
2023-01-30T20:10:27.483Z,7.03
2023-01-30T20:13:01.505Z,7.07
2023-01-30T20:14:49.348Z,7.20
2023-01-30T20:17:22.109Z,7.00
2023-01-30T20:26:03.149Z,6.93
2023-01-30T20:27:24.188Z,6.96
2023-01-30T20:28:03.811Z,6.97
2023-01-30T20:29:35.855Z,7.05
2023-01-30T20:31:25.118Z,6.88
2023-01-30T20:32:23.199Z,6.92
2023-01-30T20:33:22.920Z,6.87
2023-01-30T20:35:50.187Z,6.70
2023-01-30T20:40:33.411Z,6.81
2023-01-30T20:42:03.736Z,6.75
2023-01-30T20:45:17.493Z,6.62
2023-01-30T20:48:33.922Z,6.66
2023-01-30T20:51:07.665Z,6.60
2023-01-30T20:53:46.424Z,6.56
2023-01-30T20:56:35.236Z,6.45
2023-01-30T20:59:22.295Z,6.49
2023-01-30T21:02:19.745Z,6.38
2023-01-30T21:03:42.958Z,6.46
2023-01-30T21:06:46.003Z,6.45
2023-01-30T21:10:58.650Z,6.30
2023-01-30T21:15:29.536Z,6.44
2023-01-30T21:17:52.663Z,6.41
2023-01-30T21:23:59.715Z,6.42
2023-01-30T21:25:29.525Z,6.33
2023-01-30T21:30:59.047Z,6.12
2023-01-30T21:33:17.841Z,6.16
2023-01-30T21:36:06.389Z,6.20
2023-01-30T21:37:39.135Z,6.24
2023-01-30T21:40:36.738Z,6.14
2023-01-30T21:42:08.570Z,6.01
2023-01-30T21:43:36.616Z,5.94
2023-01-30T21:45:40.159Z,6.05
2023-01-30T21:47:09.768Z,6.09
2023-01-30T21:51:33.826Z,6.14
2023-01-30T21:53:37.784Z,6.02
2023-01-30T21:56:34.124Z,6.09
2023-01-30T22:00:04.822Z,6.08
2023-01-30T22:02:31.625Z,5.94
2023-01-30T22:04:03.520Z,6.07
2023-01-30T22:05:34.177Z,6.11
2023-01-30T22:07:35.555Z,6.07
2023-01-30T22:12:07.470Z,5.89
2023-01-30T22:18:55.203Z,5.80
2023-01-30T22:21:52.616Z,5.83
2023-01-30T22:22:51.233Z,5.84
2023-01-30T22:24:16.029Z,5.90
2023-01-30T22:26:05.105Z,5.79
2023-01-30T22:28:05.864Z,5.80
2023-01-30T22:34:54.654Z,5.71
2023-01-30T22:39:49.364Z,5.62
2023-01-30T22:45:04.075Z,5.59
2023-01-30T22:47:46.679Z,5.68
2023-01-30T22:50:21.162Z,5.71
2023-01-30T22:54:45.360Z,5.56
2023-01-30T22:59:43.011Z,5.64
2023-01-30T23:01:37.246Z,5.59
2023-01-30T23:06:15.285Z,5.65
2023-01-30T23:09:39.227Z,5.66
2023-01-30T23:11:30.444Z,5.66
2023-01-30T23:13:59.147Z,5.62
2023-01-30T23:16:04.634Z,5.57
2023-01-30T23:24:51.701Z,5.43
2023-01-30T23:26:53.737Z,5.43
2023-01-30T23:28:24.394Z,5.39
2023-01-30T23:30:35.485Z,5.39
2023-01-30T23:33:19.127Z,5.29
2023-01-30T23:37:12.209Z,5.28
2023-01-30T23:39:52.906Z,5.20
2023-01-30T23:42:50.894Z,5.15
2023-01-30T23:47:46.292Z,5.12
2023-01-30T23:49:34.206Z,5.14
2023-01-30T23:54:42.341Z,5.04
2023-01-30T23:56:12.284Z,5.00
